sensor_id;sensor_type;location;lat;lon;timestamp;pressure;altitude;pressure_sealevel;temperature;humidity
46642;BME280;32370;41.864;-88.124;2023-03-05T00:02:09;98884.71;;;3.22;100.00
46642;BME280;32370;41.864;-88.124;2023-03-05T00:04:43;98882.17;;;3.09;100.00
46642;BME280;32370;41.864;-88.124;2023-03-05T00:07:11;98887.41;;;3.08;100.00
46642;BME280;32370;41.864;-88.124;2023-03-05T00:09:39;98898.47;;;3.07;100.00
46642;BME280;32370;41.864;-88.124;2023-03-05T00:12:07;98910.50;;;2.76;100.00
46642;BME280;32370;41.864;-88.124;2023-03-05T00:14:35;98915.52;;;2.65;100.00
46642;BME280;32370;41.864;-88.124;2023-03-05T00:17:03;98911.47;;;2.99;100.00
46642;BME280;32370;41.864;-88.124;2023-03-05T00:19:31;98913.95;;;2.65;100.00
46642;BME280;32370;41.864;-88.124;2023-03-05T00:21:59;98911.03;;;2.80;100.00
46642;BME280;32370;41.864;-88.124;2023-03-05T00:24:27;98916.05;;;2.83;100.00
46642;BME280;32370;41.864;-88.124;2023-03-05T00:26:55;98922.37;;;3.08;100.00
46642;BME280;32370;41.864;-88.124;2023-03-05T00:29:23;98921.89;;;2.93;100.00
46642;BME280;32370;41.864;-88.124;2023-03-05T00:31:51;98929.54;;;3.38;100.00
46642;BME280;32370;41.864;-88.124;2023-03-05T00:34:19;98926.68;;;3.17;100.00
46642;BME280;32370;41.864;-88.124;2023-03-05T00:36:49;98927.70;;;2.98;100.00
46642;BME280;32370;41.864;-88.124;2023-03-05T00:39:20;98936.91;;;3.43;100.00
46642;BME280;32370;41.864;-88.124;2023-03-05T00:41:48;98937.96;;;2.95;100.00
46642;BME280;32370;41.864;-88.124;2023-03-05T00:44:16;98947.50;;;2.90;100.00
46642;BME280;32370;41.864;-88.124;2023-03-05T00:46:44;98946.01;;;2.58;100.00
46642;BME280;32370;41.864;-88.124;2023-03-05T00:49:13;98950.81;;;2.72;100.00
46642;BME280;32370;41.864;-88.124;2023-03-05T00:51:42;98956.97;;;2.54;100.00
46642;BME280;32370;41.864;-88.124;2023-03-05T00:54:09;98959.23;;;2.52;100.00
46642;BME280;32370;41.864;-88.124;2023-03-05T00:56:37;98959.87;;;2.55;100.00
46642;BME280;32370;41.864;-88.124;2023-03-05T00:59:05;98967.29;;;2.35;100.00
46642;BME280;32370;41.864;-88.124;2023-03-05T01:01:33;98973.65;;;2.74;100.00
46642;BME280;32370;41.864;-88.124;2023-03-05T01:04:01;98977.08;;;2.37;100.00
46642;BME280;32370;41.864;-88.124;2023-03-05T01:06:29;98988.13;;;2.34;100.00
46642;BME280;32370;41.864;-88.124;2023-03-05T01:08:57;98994.44;;;2.63;100.00
46642;BME280;32370;41.864;-88.124;2023-03-05T01:11:25;98999.10;;;2.66;100.00
46642;BME280;32370;41.864;-88.124;2023-03-05T01:13:59;99001.73;;;2.84;100.00
46642;BME280;32370;41.864;-88.124;2023-03-05T01:16:27;99008.54;;;2.46;100.00
46642;BME280;32370;41.864;-88.124;2023-03-05T01:18:55;99016.13;;;2.65;100.00
46642;BME280;32370;41.864;-88.124;2023-03-05T01:21:23;99018.97;;;2.57;100.00
46642;BME280;32370;41.864;-88.124;2023-03-05T01:23:51;99023.83;;;1.91;100.00
46642;BME280;32370;41.864;-88.124;2023-03-05T01:26:19;99019.97;;;2.27;100.00
46642;BME280;32370;41.864;-88.124;2023-03-05T01:28:47;99009.41;;;2.55;100.00
46642;BME280;32370;41.864;-88.124;2023-03-05T01:31:16;99007.08;;;2.06;100.00
46642;BME280;32370;41.864;-88.124;2023-03-05T01:33:43;99015.63;;;2.02;100.00
46642;BME280;32370;41.864;-88.124;2023-03-05T01:36:13;99007.75;;;1.98;100.00
46642;BME280;32370;41.864;-88.124;2023-03-05T01:38:42;99006.47;;;2.01;100.00
46642;BME280;32370;41.864;-88.124;2023-03-05T01:41:10;99004.03;;;2.13;100.00
46642;BME280;32370;41.864;-88.124;2023-03-05T01:43:39;99005.17;;;1.89;100.00
46642;BME280;32370;41.864;-88.124;2023-03-05T01:46:40;99012.08;;;2.48;100.00
46642;BME280;32370;41.864;-88.124;2023-03-05T01:49:17;99010.60;;;1.45;100.00
46642;BME280;32370;41.864;-88.124;2023-03-05T01:51:53;99004.20;;;1.72;100.00
46642;BME280;32370;41.864;-88.124;2023-03-05T01:54:28;98998.21;;;1.21;100.00
46642;BME280;32370;41.864;-88.124;2023-03-05T01:56:59;98998.46;;;1.78;100.00
46642;BME280;32370;41.864;-88.124;2023-03-05T01:59:30;99010.45;;;1.35;100.00
46642;BME280;32370;41.864;-88.124;2023-03-05T02:01:59;99016.17;;;0.97;100.00
46642;BME280;32370;41.864;-88.124;2023-03-05T02:04:33;99018.65;;;1.32;100.00
46642;BME280;32370;41.864;-88.124;2023-03-05T02:07:03;99025.12;;;1.12;100.00
46642;BME280;32370;41.864;-88.124;2023-03-05T02:09:32;99027.71;;;1.13;100.00
46642;BME280;32370;41.864;-88.124;2023-03-05T02:12:00;99024.63;;;1.37;100.00
46642;BME280;32370;41.864;-88.124;2023-03-05T02:14:28;99024.92;;;1.41;100.00
46642;BME280;32370;41.864;-88.124;2023-03-05T02:16:55;99031.66;;;1.44;100.00
46642;BME280;32370;41.864;-88.124;2023-03-05T02:19:23;99030.02;;;1.38;100.00
46642;BME280;32370;41.864;-88.124;2023-03-05T02:21:51;99030.58;;;0.94;100.00
46642;BME280;32370;41.864;-88.124;2023-03-05T02:24:34;99037.32;;;1.31;100.00
46642;BME280;32370;41.864;-88.124;2023-03-05T02:27:02;99045.70;;;1.11;100.00
46642;BME280;32370;41.864;-88.124;2023-03-05T02:29:32;99045.82;;;1.56;100.00
46642;BME280;32370;41.864;-88.124;2023-03-05T02:32:01;99049.04;;;1.66;100.00
46642;BME280;32370;41.864;-88.124;2023-03-05T02:34:29;99061.95;;;1.33;100.00
46642;BME280;32370;41.864;-88.124;2023-03-05T02:36:57;99063.63;;;1.11;100.00
46642;BME280;32370;41.864;-88.124;2023-03-05T02:39:25;99073.24;;;1.26;100.00
46642;BME280;32370;41.864;-88.124;2023-03-05T02:41:53;99074.41;;;1.23;100.00
46642;BME280;32370;41.864;-88.124;2023-03-05T02:44:21;99074.97;;;1.27;100.00
46642;BME280;32370;41.864;-88.124;2023-03-05T02:46:49;99087.63;;;1.14;100.00
46642;BME280;32370;41.864;-88.124;2023-03-05T02:49:18;99086.45;;;1.29;100.00
46642;BME280;32370;41.864;-88.124;2023-03-05T02:51:46;99084.39;;;1.13;100.00
46642;BME280;32370;41.864;-88.124;2023-03-05T02:54:14;99077.92;;;1.24;100.00
46642;BME280;32370;41.864;-88.124;2023-03-05T02:56:42;99081.72;;;1.30;100.00
46642;BME280;32370;41.864;-88.124;2023-03-05T02:59:10;99080.49;;;0.83;100.00
46642;BME280;32370;41.864;-88.124;2023-03-05T03:01:38;99080.24;;;0.91;100.00
46642;BME280;32370;41.864;-88.124;2023-03-05T03:04:06;99080.64;;;0.75;100.00
46642;BME280;32370;41.864;-88.124;2023-03-05T03:06:34;99075.28;;;0.45;100.00
46642;BME280;32370;41.864;-88.124;2023-03-05T03:09:02;99076.91;;;0.64;100.00
46642;BME280;32370;41.864;-88.124;2023-03-05T03:11:30;99069.83;;;1.12;100.00
46642;BME280;32370;41.864;-88.124;2023-03-05T03:13:58;99069.65;;;1.71;100.00
46642;BME280;32370;41.864;-88.124;2023-03-05T03:16:27;99068.21;;;1.44;100.00
46642;BME280;32370;41.864;-88.124;2023-03-05T03:18:55;99072.04;;;1.11;100.00
46642;BME280;32370;41.864;-88.124;2023-03-05T03:21:24;99075.18;;;0.54;100.00
46642;BME280;32370;41.864;-88.124;2023-03-05T03:23:53;99077.74;;;0.54;100.00
46642;BME280;32370;41.864;-88.124;2023-03-05T03:26:21;99078.82;;;0.82;100.00
46642;BME280;32370;41.864;-88.124;2023-03-05T03:28:49;99083.87;;;0.31;100.00
46642;BME280;32370;41.864;-88.124;2023-03-05T03:31:17;99082.66;;;0.50;100.00
46642;BME280;32370;41.864;-88.124;2023-03-05T03:33:45;99080.74;;;0.21;100.00
46642;BME280;32370;41.864;-88.124;2023-03-05T03:36:14;99082.36;;;0.22;100.00
46642;BME280;32370;41.864;-88.124;2023-03-05T03:38:41;99085.56;;;0.58;100.00
46642;BME280;32370;41.864;-88.124;2023-03-05T03:41:09;99090.62;;;0.24;100.00
46642;BME280;32370;41.864;-88.124;2023-03-05T03:43:37;99091.23;;;-0.10;100.00
46642;BME280;32370;41.864;-88.124;2023-03-05T03:46:05;99095.23;;;0.08;100.00
46642;BME280;32370;41.864;-88.124;2023-03-05T03:48:34;99101.21;;;-0.07;100.00
46642;BME280;32370;41.864;-88.124;2023-03-05T03:51:06;99105.05;;;-0.19;100.00
46642;BME280;32370;41.864;-88.124;2023-03-05T03:53:34;99111.22;;;0.02;100.00
46642;BME280;32370;41.864;-88.124;2023-03-05T03:56:02;99117.59;;;-0.09;100.00
46642;BME280;32370;41.864;-88.124;2023-03-05T03:58:30;99131.16;;;-0.14;100.00
46642;BME280;32370;41.864;-88.124;2023-03-05T04:00:58;99136.52;;;0.11;100.00
46642;BME280;32370;41.864;-88.124;2023-03-05T04:03:26;99138.58;;;-0.00;100.00
46642;BME280;32370;41.864;-88.124;2023-03-05T04:05:54;99142.49;;;-0.02;100.00
46642;BME280;32370;41.864;-88.124;2023-03-05T04:08:22;99144.88;;;-0.05;100.00
46642;BME280;32370;41.864;-88.124;2023-03-05T04:10:50;99147.58;;;-0.04;100.00
46642;BME280;32370;41.864;-88.124;2023-03-05T04:13:18;99150.54;;;-0.10;100.00
46642;BME280;32370;41.864;-88.124;2023-03-05T04:15:46;99150.42;;;-0.05;100.00
46642;BME280;32370;41.864;-88.124;2023-03-05T04:18:14;99153.38;;;-0.04;100.00
46642;BME280;32370;41.864;-88.124;2023-03-05T04:20:42;99152.46;;;-0.79;100.00
46642;BME280;32370;41.864;-88.124;2023-03-05T04:23:10;99151.31;;;-0.53;100.00
46642;BME280;32370;41.864;-88.124;2023-03-05T04:25:38;99153.68;;;-0.31;100.00
46642;BME280;32370;41.864;-88.124;2023-03-05T04:28:06;99155.57;;;-0.30;100.00
46642;BME280;32370;41.864;-88.124;2023-03-05T04:30:33;99155.29;;;-0.37;100.00
46642;BME280;32370;41.864;-88.124;2023-03-05T04:33:02;99156.07;;;-0.46;100.00
46642;BME280;32370;41.864;-88.124;2023-03-05T04:35:30;99159.45;;;-0.35;100.00
46642;BME280;32370;41.864;-88.124;2023-03-05T04:37:57;99163.77;;;-0.50;100.00
46642;BME280;32370;41.864;-88.124;2023-03-05T04:40:25;99166.30;;;-0.71;100.00
46642;BME280;32370;41.864;-88.124;2023-03-05T04:42:53;99173.64;;;-0.35;100.00
46642;BME280;32370;41.864;-88.124;2023-03-05T04:45:21;99176.67;;;-0.33;100.00
46642;BME280;32370;41.864;-88.124;2023-03-05T04:47:49;99181.14;;;-0.21;100.00
46642;BME280;32370;41.864;-88.124;2023-03-05T04:50:18;99188.61;;;-0.65;100.00
46642;BME280;32370;41.864;-88.124;2023-03-05T04:52:46;99188.19;;;-0.72;100.00
46642;BME280;32370;41.864;-88.124;2023-03-05T04:55:15;99192.30;;;-0.87;100.00
46642;BME280;32370;41.864;-88.124;2023-03-05T04:57:44;99192.28;;;-0.81;100.00
46642;BME280;32370;41.864;-88.124;2023-03-05T05:00:15;99196.35;;;-0.73;100.00
46642;BME280;32370;41.864;-88.124;2023-03-05T05:02:45;99198.18;;;-1.00;100.00
46642;BME280;32370;41.864;-88.124;2023-03-05T05:05:16;99198.92;;;-1.01;100.00
46642;BME280;32370;41.864;-88.124;2023-03-05T05:07:44;99199.49;;;-0.68;100.00
46642;BME280;32370;41.864;-88.124;2023-03-05T05:10:13;99197.28;;;-1.17;100.00
46642;BME280;32370;41.864;-88.124;2023-03-05T05:12:42;99197.47;;;-0.92;100.00
46642;BME280;32370;41.864;-88.124;2023-03-05T05:15:11;99198.02;;;-1.01;100.00
46642;BME280;32370;41.864;-88.124;2023-03-05T05:17:40;99198.58;;;-0.99;100.00
46642;BME280;32370;41.864;-88.124;2023-03-05T05:20:10;99197.29;;;-0.99;100.00
46642;BME280;32370;41.864;-88.124;2023-03-05T05:22:38;99203.22;;;-1.06;100.00
46642;BME280;32370;41.864;-88.124;2023-03-05T05:25:07;99205.00;;;-0.74;100.00
46642;BME280;32370;41.864;-88.124;2023-03-05T05:27:35;99208.83;;;-0.86;100.00
46642;BME280;32370;41.864;-88.124;2023-03-05T05:30:04;99215.94;;;-1.11;100.00
46642;BME280;32370;41.864;-88.124;2023-03-05T05:32:32;99217.91;;;-0.90;100.00
46642;BME280;32370;41.864;-88.124;2023-03-05T05:35:00;99224.02;;;-1.18;100.00
46642;BME280;32370;41.864;-88.124;2023-03-05T05:37:29;99225.14;;;-1.28;100.00
46642;BME280;32370;41.864;-88.124;2023-03-05T05:39:57;99226.48;;;-1.05;100.00
46642;BME280;32370;41.864;-88.124;2023-03-05T05:42:25;99230.37;;;-1.17;100.00
46642;BME280;32370;41.864;-88.124;2023-03-05T05:44:53;99233.25;;;-1.44;100.00
46642;BME280;32370;41.864;-88.124;2023-03-05T05:47:22;99229.36;;;-1.50;100.00
46642;BME280;32370;41.864;-88.124;2023-03-05T05:49:49;99225.06;;;-1.34;100.00
46642;BME280;32370;41.864;-88.124;2023-03-05T05:52:17;99228.86;;;-1.38;100.00
46642;BME280;32370;41.864;-88.124;2023-03-05T05:54:47;99237.29;;;-1.66;100.00
46642;BME280;32370;41.864;-88.124;2023-03-05T05:57:15;99238.67;;;-1.71;100.00
46642;BME280;32370;41.864;-88.124;2023-03-05T05:59:42;99244.67;;;-1.79;100.00
46642;BME280;32370;41.864;-88.124;2023-03-05T06:02:10;99247.65;;;-1.62;100.00
46642;BME280;32370;41.864;-88.124;2023-03-05T06:04:38;99252.25;;;-1.55;100.00
46642;BME280;32370;41.864;-88.124;2023-03-05T06:07:06;99260.40;;;-1.63;100.00
46642;BME280;32370;41.864;-88.124;2023-03-05T06:09:34;99264.85;;;-1.63;100.00
46642;BME280;32370;41.864;-88.124;2023-03-05T06:12:04;99271.49;;;-1.68;100.00
46642;BME280;32370;41.864;-88.124;2023-03-05T06:14:32;99270.07;;;-1.85;100.00
46642;BME280;32370;41.864;-88.124;2023-03-05T06:17:00;99279.44;;;-1.97;100.00
46642;BME280;32370;41.864;-88.124;2023-03-05T06:19:28;99288.99;;;-2.11;100.00
46642;BME280;32370;41.864;-88.124;2023-03-05T06:21:56;99292.67;;;-2.16;100.00
46642;BME280;32370;41.864;-88.124;2023-03-05T06:24:24;99294.45;;;-1.96;100.00
46642;BME280;32370;41.864;-88.124;2023-03-05T06:26:52;99301.91;;;-2.29;100.00
46642;BME280;32370;41.864;-88.124;2023-03-05T06:29:20;99310.67;;;-2.38;100.00
46642;BME280;32370;41.864;-88.124;2023-03-05T06:31:48;99312.68;;;-2.23;100.00
46642;BME280;32370;41.864;-88.124;2023-03-05T06:34:16;99316.04;;;-2.20;100.00
46642;BME280;32370;41.864;-88.124;2023-03-05T06:36:44;99322.10;;;-2.20;100.00
46642;BME280;32370;41.864;-88.124;2023-03-05T06:39:12;99323.15;;;-2.15;100.00
46642;BME280;32370;41.864;-88.124;2023-03-05T06:41:40;99323.07;;;-1.95;100.00
46642;BME280;32370;41.864;-88.124;2023-03-05T06:44:08;99327.76;;;-2.04;100.00
46642;BME280;32370;41.864;-88.124;2023-03-05T06:46:37;99335.61;;;-1.83;100.00
46642;BME280;32370;41.864;-88.124;2023-03-05T06:49:05;99335.78;;;-2.06;100.00
46642;BME280;32370;41.864;-88.124;2023-03-05T06:51:35;99333.95;;;-2.24;100.00
46642;BME280;32370;41.864;-88.124;2023-03-05T06:54:06;99341.73;;;-2.13;100.00
46642;BME280;32370;41.864;-88.124;2023-03-05T06:56:36;99351.33;;;-2.36;100.00
46642;BME280;32370;41.864;-88.124;2023-03-05T06:59:06;99358.64;;;-2.21;100.00
46642;BME280;32370;41.864;-88.124;2023-03-05T07:01:34;99362.96;;;-2.23;100.00
46642;BME280;32370;41.864;-88.124;2023-03-05T07:04:02;99367.19;;;-1.98;100.00
46642;BME280;32370;41.864;-88.124;2023-03-05T07:06:32;99365.96;;;-2.49;100.00
46642;BME280;32370;41.864;-88.124;2023-03-05T07:09:02;99368.42;;;-1.95;100.00
46642;BME280;32370;41.864;-88.124;2023-03-05T07:11:31;99369.86;;;-2.17;100.00
46642;BME280;32370;41.864;-88.124;2023-03-05T07:14:00;99369.60;;;-2.23;100.00
46642;BME280;32370;41.864;-88.124;2023-03-05T07:16:30;99372.31;;;-2.25;100.00
46642;BME280;32370;41.864;-88.124;2023-03-05T07:19:00;99373.43;;;-2.25;100.00
46642;BME280;32370;41.864;-88.124;2023-03-05T07:21:31;99383.18;;;-2.52;100.00
46642;BME280;32370;41.864;-88.124;2023-03-05T07:24:01;99386.74;;;-2.27;100.00
46642;BME280;32370;41.864;-88.124;2023-03-05T07:26:30;99390.53;;;-2.77;100.00
46642;BME280;32370;41.864;-88.124;2023-03-05T07:28:58;99391.29;;;-2.53;100.00
46642;BME280;32370;41.864;-88.124;2023-03-05T07:31:27;99400.70;;;-2.74;100.00
46642;BME280;32370;41.864;-88.124;2023-03-05T07:33:56;99400.76;;;-2.64;100.00
46642;BME280;32370;41.864;-88.124;2023-03-05T07:36:24;99404.21;;;-2.27;100.00
46642;BME280;32370;41.864;-88.124;2023-03-05T07:38:52;99405.47;;;-2.31;100.00
46642;BME280;32370;41.864;-88.124;2023-03-05T07:41:20;99407.42;;;-2.65;100.00
46642;BME280;32370;41.864;-88.124;2023-03-05T07:43:50;99412.65;;;-2.43;100.00
46642;BME280;32370;41.864;-88.124;2023-03-05T07:46:19;99417.23;;;-2.61;100.00
46642;BME280;32370;41.864;-88.124;2023-03-05T07:48:47;99413.45;;;-2.37;100.00
46642;BME280;32370;41.864;-88.124;2023-03-05T07:51:17;99415.23;;;-2.31;100.00
46642;BME280;32370;41.864;-88.124;2023-03-05T07:53:46;99411.76;;;-3.03;100.00
46642;BME280;32370;41.864;-88.124;2023-03-05T07:56:21;99409.93;;;-2.44;100.00
46642;BME280;32370;41.864;-88.124;2023-03-05T07:58:51;99414.67;;;-2.68;100.00
46642;BME280;32370;41.864;-88.124;2023-03-05T08:01:19;99413.98;;;-2.73;100.00
46642;BME280;32370;41.864;-88.124;2023-03-05T08:03:47;99417.87;;;-2.68;100.00
46642;BME280;32370;41.864;-88.124;2023-03-05T08:06:15;99424.12;;;-2.52;100.00
46642;BME280;32370;41.864;-88.124;2023-03-05T08:08:43;99427.58;;;-2.37;100.00
46642;BME280;32370;41.864;-88.124;2023-03-05T08:11:13;99429.37;;;-2.81;100.00
46642;BME280;32370;41.864;-88.124;2023-03-05T08:13:42;99430.44;;;-3.00;100.00
46642;BME280;32370;41.864;-88.124;2023-03-05T08:16:14;99428.85;;;-2.80;100.00
46642;BME280;32370;41.864;-88.124;2023-03-05T08:18:42;99431.05;;;-2.86;100.00
46642;BME280;32370;41.864;-88.124;2023-03-05T08:21:16;99435.44;;;-2.97;100.00
46642;BME280;32370;41.864;-88.124;2023-03-05T08:23:45;99440.52;;;-3.50;100.00
46642;BME280;32370;41.864;-88.124;2023-03-05T08:26:14;99441.20;;;-3.23;100.00
46642;BME280;32370;41.864;-88.124;2023-03-05T08:28:44;99444.46;;;-3.12;100.00
46642;BME280;32370;41.864;-88.124;2023-03-05T08:31:13;99447.78;;;-3.28;100.00
46642;BME280;32370;41.864;-88.124;2023-03-05T08:33:42;99445.92;;;-3.00;100.00
46642;BME280;32370;41.864;-88.124;2023-03-05T08:36:10;99443.13;;;-2.67;100.00
46642;BME280;32370;41.864;-88.124;2023-03-05T08:38:38;99437.03;;;-2.56;100.00
46642;BME280;32370;41.864;-88.124;2023-03-05T08:41:06;99436.08;;;-3.00;100.00
46642;BME280;32370;41.864;-88.124;2023-03-05T08:43:34;99437.94;;;-3.03;100.00
46642;BME280;32370;41.864;-88.124;2023-03-05T08:46:02;99435.84;;;-3.17;100.00
46642;BME280;32370;41.864;-88.124;2023-03-05T08:48:31;99437.38;;;-3.12;100.00
46642;BME280;32370;41.864;-88.124;2023-03-05T08:51:04;99438.79;;;-3.06;100.00
46642;BME280;32370;41.864;-88.124;2023-03-05T08:53:33;99435.18;;;-2.99;100.00
46642;BME280;32370;41.864;-88.124;2023-03-05T08:56:01;99437.14;;;-2.79;100.00
46642;BME280;32370;41.864;-88.124;2023-03-05T08:58:29;99443.73;;;-2.92;100.00
46642;BME280;32370;41.864;-88.124;2023-03-05T09:00:58;99441.74;;;-3.33;100.00
46642;BME280;32370;41.864;-88.124;2023-03-05T09:03:27;99443.74;;;-3.38;100.00
46642;BME280;32370;41.864;-88.124;2023-03-05T09:05:59;99451.52;;;-3.37;100.00
46642;BME280;32370;41.864;-88.124;2023-03-05T09:08:27;99452.57;;;-3.10;100.00
46642;BME280;32370;41.864;-88.124;2023-03-05T09:10:55;99453.69;;;-3.02;100.00
46642;BME280;32370;41.864;-88.124;2023-03-05T09:13:23;99457.08;;;-3.13;100.00
46642;BME280;32370;41.864;-88.124;2023-03-05T09:15:55;99460.12;;;-2.97;100.00
46642;BME280;32370;41.864;-88.124;2023-03-05T09:18:23;99461.09;;;-2.41;100.00
46642;BME280;32370;41.864;-88.124;2023-03-05T09:20:51;99469.43;;;-2.04;100.00
46642;BME280;32370;41.864;-88.124;2023-03-05T09:23:19;99461.72;;;-1.98;100.00
46642;BME280;32370;41.864;-88.124;2023-03-05T09:25:47;99460.83;;;-2.07;100.00
46642;BME280;32370;41.864;-88.124;2023-03-05T09:28:15;99467.00;;;-1.84;100.00
46642;BME280;32370;41.864;-88.124;2023-03-05T09:30:43;99472.10;;;-1.90;100.00
46642;BME280;32370;41.864;-88.124;2023-03-05T09:33:12;99484.05;;;-2.21;100.00
46642;BME280;32370;41.864;-88.124;2023-03-05T09:35:39;99487.11;;;-2.32;100.00
46642;BME280;32370;41.864;-88.124;2023-03-05T09:38:07;99490.15;;;-1.99;100.00
46642;BME280;32370;41.864;-88.124;2023-03-05T09:40:43;99489.77;;;-2.27;100.00
46642;BME280;32370;41.864;-88.124;2023-03-05T09:43:21;99497.97;;;-2.07;100.00
46642;BME280;32370;41.864;-88.124;2023-03-05T09:46:03;99494.72;;;-1.45;100.00
46642;BME280;32370;41.864;-88.124;2023-03-05T09:48:43;99500.48;;;-1.50;100.00
46642;BME280;32370;41.864;-88.124;2023-03-05T09:51:21;99502.15;;;-1.65;100.00
46642;BME280;32370;41.864;-88.124;2023-03-05T09:53:56;99500.69;;;-1.44;100.00
46642;BME280;32370;41.864;-88.124;2023-03-05T09:56:28;99497.31;;;-1.83;100.00
46642;BME280;32370;41.864;-88.124;2023-03-05T12:38:31;99681.45;;;-2.56;100.00
46642;BME280;32370;41.864;-88.124;2023-03-05T12:41:33;99690.63;;;-3.30;100.00
46642;BME280;32370;41.864;-88.124;2023-03-05T12:44:33;99695.38;;;-3.24;100.00
46642;BME280;32370;41.864;-88.124;2023-03-05T12:47:27;99695.00;;;-5.09;100.00
46642;BME280;32370;41.864;-88.124;2023-03-05T12:49:54;99697.21;;;-4.72;100.00
46642;BME280;32370;41.864;-88.124;2023-03-05T12:52:24;99700.66;;;-4.48;100.00
46642;BME280;32370;41.864;-88.124;2023-03-05T12:55:00;99705.88;;;-4.96;100.00
46642;BME280;32370;41.864;-88.124;2023-03-05T12:57:29;99697.97;;;-4.65;100.00
46642;BME280;32370;41.864;-88.124;2023-03-05T13:00:03;99699.26;;;-4.65;100.00
46642;BME280;32370;41.864;-88.124;2023-03-05T13:02:35;99707.09;;;-4.67;100.00
46642;BME280;32370;41.864;-88.124;2023-03-05T13:05:19;99713.01;;;-4.58;100.00
46642;BME280;32370;41.864;-88.124;2023-03-05T13:07:47;99714.39;;;-4.45;100.00
46642;BME280;32370;41.864;-88.124;2023-03-05T13:10:22;99715.68;;;-4.54;100.00
46642;BME280;32370;41.864;-88.124;2023-03-05T13:12:51;99716.13;;;-4.56;100.00
46642;BME280;32370;41.864;-88.124;2023-03-05T13:15:19;99717.51;;;-4.22;100.00
46642;BME280;32370;41.864;-88.124;2023-03-05T13:17:54;99714.62;;;-4.81;100.00
46642;BME280;32370;41.864;-88.124;2023-03-05T13:20:28;99711.02;;;-4.14;100.00
46642;BME280;32370;41.864;-88.124;2023-03-05T13:23:09;99702.37;;;-3.48;100.00
46642;BME280;32370;41.864;-88.124;2023-03-05T13:25:38;99699.70;;;-3.03;100.00
46642;BME280;32370;41.864;-88.124;2023-03-05T13:28:10;99700.35;;;-3.11;100.00
46642;BME280;32370;41.864;-88.124;2023-03-05T13:30:38;99699.54;;;-3.23;100.00
46642;BME280;32370;41.864;-88.124;2023-03-05T13:33:27;99703.47;;;-3.33;100.00
46642;BME280;32370;41.864;-88.124;2023-03-05T13:35:55;99712.32;;;-1.71;100.00
46642;BME280;32370;41.864;-88.124;2023-03-05T13:38:27;99714.68;;;-1.59;100.00
46642;BME280;32370;41.864;-88.124;2023-03-05T13:41:15;99719.25;;;-1.38;100.00
46642;BME280;32370;41.864;-88.124;2023-03-05T13:43:46;99713.99;;;-1.17;100.00
46642;BME280;32370;41.864;-88.124;2023-03-05T13:46:23;99710.19;;;-1.03;100.00
46642;BME280;32370;41.864;-88.124;2023-03-05T13:48:51;99704.89;;;-0.96;100.00
46642;BME280;32370;41.864;-88.124;2023-03-05T13:51:19;99702.78;;;-0.17;100.00
46642;BME280;32370;41.864;-88.124;2023-03-05T13:53:48;99701.13;;;0.01;100.00
46642;BME280;32370;41.864;-88.124;2023-03-05T13:56:19;99706.00;;;-0.11;100.00
46642;BME280;32370;41.864;-88.124;2023-03-05T13:58:50;99709.23;;;-0.07;100.00
46642;BME280;32370;41.864;-88.124;2023-03-05T14:01:39;99710.18;;;0.16;100.00
46642;BME280;32370;41.864;-88.124;2023-03-05T14:04:18;99717.58;;;0.61;100.00
46642;BME280;32370;41.864;-88.124;2023-03-05T14:06:49;99713.84;;;0.41;100.00
46642;BME280;32370;41.864;-88.124;2023-03-05T14:09:21;99712.77;;;0.94;100.00
46642;BME280;32370;41.864;-88.124;2023-03-05T14:11:55;99715.42;;;1.02;100.00
46642;BME280;32370;41.864;-88.124;2023-03-05T14:14:25;99714.56;;;1.02;100.00
46642;BME280;32370;41.864;-88.124;2023-03-05T14:16:55;99715.30;;;0.94;100.00
46642;BME280;32370;41.864;-88.124;2023-03-05T14:19:39;99715.15;;;1.34;100.00
46642;BME280;32370;41.864;-88.124;2023-03-05T14:22:26;99716.28;;;1.19;100.00
46642;BME280;32370;41.864;-88.124;2023-03-05T14:24:55;99725.65;;;1.54;100.00
46642;BME280;32370;41.864;-88.124;2023-03-05T14:27:24;99730.18;;;1.18;100.00
46642;BME280;32370;41.864;-88.124;2023-03-05T14:29:53;99731.21;;;1.55;100.00
46642;BME280;32370;41.864;-88.124;2023-03-05T14:32:27;99734.92;;;1.37;100.00
46642;BME280;32370;41.864;-88.124;2023-03-05T14:34:58;99735.34;;;1.83;97.25
46642;BME280;32370;41.864;-88.124;2023-03-05T14:37:30;99733.39;;;2.00;95.35
46642;BME280;32370;41.864;-88.124;2023-03-05T14:40:00;99734.85;;;2.18;97.06
46642;BME280;32370;41.864;-88.124;2023-03-05T14:42:31;99740.93;;;2.49;93.40
46642;BME280;32370;41.864;-88.124;2023-03-05T14:45:08;99740.52;;;2.15;95.21
46642;BME280;32370;41.864;-88.124;2023-03-05T14:47:37;99741.41;;;2.43;94.88
46642;BME280;32370;41.864;-88.124;2023-03-05T14:50:06;99736.43;;;2.84;93.33
46642;BME280;32370;41.864;-88.124;2023-03-05T14:52:34;99732.52;;;2.87;96.26
46642;BME280;32370;41.864;-88.124;2023-03-05T14:55:02;99737.97;;;2.88;93.08
46642;BME280;32370;41.864;-88.124;2023-03-05T14:57:32;99740.44;;;3.20;88.14
46642;BME280;32370;41.864;-88.124;2023-03-05T15:00:01;99732.53;;;2.55;88.20
46642;BME280;32370;41.864;-88.124;2023-03-05T15:02:28;99733.93;;;2.56;91.36
46642;BME280;32370;41.864;-88.124;2023-03-05T15:04:56;99737.23;;;2.94;95.87
46642;BME280;32370;41.864;-88.124;2023-03-05T15:07:28;99740.54;;;2.53;91.16
46642;BME280;32370;41.864;-88.124;2023-03-05T15:09:57;99738.69;;;2.79;91.48
46642;BME280;32370;41.864;-88.124;2023-03-05T15:12:26;99736.37;;;3.37;88.52
46642;BME280;32370;41.864;-88.124;2023-03-05T15:14:55;99736.57;;;3.79;84.40
46642;BME280;32370;41.864;-88.124;2023-03-05T15:17:25;99739.51;;;3.71;88.11
46642;BME280;32370;41.864;-88.124;2023-03-05T15:20:01;99746.01;;;4.15;81.50
46642;BME280;32370;41.864;-88.124;2023-03-05T15:22:29;99738.70;;;4.48;81.96
46642;BME280;32370;41.864;-88.124;2023-03-05T15:24:58;99735.66;;;4.20;81.83
46642;BME280;32370;41.864;-88.124;2023-03-05T15:27:26;99741.23;;;4.29;80.36
46642;BME280;32370;41.864;-88.124;2023-03-05T15:29:53;99748.40;;;4.53;77.68